createdAt,value
2022-10-07T00:02:12.092Z,2.15
2022-10-07T00:04:46.200Z,2.45
2022-10-07T00:07:18.724Z,2.28
2022-10-07T00:09:51.212Z,2.95
2022-10-07T00:12:23.809Z,3.42
2022-10-07T00:14:56.347Z,2.75
2022-10-07T00:17:28.800Z,2.72
2022-10-07T00:20:01.541Z,2.53
2022-10-07T00:22:34.045Z,2.35
2022-10-07T00:25:06.845Z,2.20
2022-10-07T00:27:39.342Z,2.58
2022-10-07T00:30:12.760Z,2.58
2022-10-07T00:32:45.365Z,2.58
2022-10-07T00:35:17.855Z,2.22
2022-10-07T00:37:50.329Z,3.10
2022-10-07T00:40:22.864Z,2.33
2022-10-07T00:42:55.358Z,2.08
2022-10-07T00:45:28.341Z,2.30
2022-10-07T00:48:00.842Z,2.72
2022-10-07T00:50:33.506Z,2.72
2022-10-07T00:53:06.006Z,2.50
2022-10-07T00:55:38.509Z,2.20
2022-10-07T00:58:11.159Z,2.13
2022-10-07T01:00:43.644Z,2.88
2022-10-07T01:03:16.508Z,2.47
2022-10-07T01:05:49.009Z,2.15
2022-10-07T01:08:23.490Z,2.45
2022-10-07T01:11:28.007Z,2.80
2022-10-07T01:14:44.947Z,2.10
2022-10-07T01:17:44.232Z,2.15
2022-10-07T01:20:39.372Z,2.70
2022-10-07T01:23:32.721Z,2.85
2022-10-07T01:26:09.277Z,2.40
2022-10-07T01:28:53.964Z,2.80
2022-10-07T01:31:41.688Z,2.97
2022-10-07T01:34:17.444Z,2.67
2022-10-07T01:36:56.778Z,3.13
2022-10-07T01:39:40.617Z,3.03
2022-10-07T01:42:15.491Z,2.78
2022-10-07T01:44:54.520Z,2.55
2022-10-07T01:47:28.088Z,2.75
2022-10-07T01:50:00.584Z,3.40
2022-10-07T01:52:43.081Z,2.88
2022-10-07T01:55:58.740Z,3.03
2022-10-07T01:59:08.106Z,2.38
2022-10-07T02:02:01.496Z,3.25
2022-10-07T02:05:09.211Z,3.05
2022-10-07T02:08:06.742Z,2.92
2022-10-07T02:11:03.614Z,2.80
2022-10-07T02:14:14.516Z,2.85
2022-10-07T02:16:51.684Z,2.70
2022-10-07T02:19:39.474Z,2.83
2022-10-07T02:22:17.240Z,3.08
2022-10-07T02:25:00.360Z,2.75
2022-10-07T02:27:39.472Z,2.88
2022-10-07T02:30:18.444Z,2.83
2022-10-07T02:32:57.288Z,2.95
2022-10-07T02:35:59.501Z,4.50
2022-10-07T02:38:32.286Z,2.78
2022-10-07T02:41:41.908Z,2.85
2022-10-07T02:44:26.070Z,1.98
2022-10-07T02:47:08.697Z,2.53
2022-10-07T02:52:20.124Z,2.45
2022-10-07T02:54:59.542Z,2.60
2022-10-07T02:57:39.547Z,2.58
2022-10-07T03:00:14.419Z,3.20
2022-10-07T03:03:00.397Z,2.38
2022-10-07T03:05:35.283Z,2.53
2022-10-07T03:08:10.889Z,2.40
2022-10-07T03:10:43.793Z,2.28
2022-10-07T03:13:16.337Z,2.55
2022-10-07T03:15:48.934Z,2.58
2022-10-07T03:18:28.234Z,1.92
2022-10-07T03:21:00.993Z,2.58
2022-10-07T03:23:33.472Z,2.83
2022-10-07T03:26:05.976Z,2.70
2022-10-07T03:28:38.465Z,2.53
2022-10-07T03:31:13.994Z,3.30
2022-10-07T03:33:46.498Z,2.33
2022-10-07T03:36:19.422Z,2.55
2022-10-07T03:38:52.141Z,2.25
2022-10-07T03:41:24.718Z,2.50
2022-10-07T03:43:59.346Z,2.97
2022-10-07T03:46:31.966Z,2.92
2022-10-07T03:49:04.773Z,2.88
2022-10-07T03:51:37.441Z,2.67
2022-10-07T03:54:10.105Z,3.03
2022-10-07T03:56:42.580Z,2.85
2022-10-07T03:59:15.041Z,2.30
2022-10-07T04:01:47.882Z,2.90
2022-10-07T04:04:20.546Z,2.67
2022-10-07T04:06:53.040Z,2.95
2022-10-07T04:09:25.581Z,2.70
2022-10-07T04:11:58.099Z,2.97
2022-10-07T04:14:30.660Z,2.50
2022-10-07T04:17:05.889Z,2.45
2022-10-07T04:19:38.440Z,2.53
2022-10-07T04:22:10.925Z,2.95
2022-10-07T04:24:43.394Z,2.97
2022-10-07T04:27:33.925Z,3.60
2022-10-07T04:30:09.761Z,2.70
2022-10-07T04:32:42.255Z,3.15
2022-10-07T04:35:15.021Z,3.13
2022-10-07T04:37:53.828Z,2.65
2022-10-07T04:40:27.466Z,2.58
2022-10-07T04:43:18.535Z,2.75
2022-10-07T04:46:01.493Z,2.75
2022-10-07T04:48:35.810Z,2.90
2022-10-07T04:51:09.563Z,3.08
2022-10-07T04:53:42.069Z,2.45
2022-10-07T04:56:14.514Z,3.15
2022-10-07T04:58:47.075Z,2.50
2022-10-07T05:01:19.639Z,2.50
2022-10-07T05:03:52.300Z,2.40
2022-10-07T05:06:24.956Z,2.83
2022-10-07T05:08:57.501Z,2.97
2022-10-07T05:11:30.050Z,2.60
2022-10-07T05:14:02.556Z,2.53
2022-10-07T05:16:35.106Z,3.00
2022-10-07T05:19:07.872Z,2.33
2022-10-07T05:21:40.481Z,2.92
2022-10-07T05:24:12.990Z,2.47
2022-10-07T05:26:45.485Z,2.42
2022-10-07T05:29:17.958Z,2.83
2022-10-07T05:31:50.705Z,2.10
2022-10-07T05:34:23.325Z,2.53
2022-10-07T05:36:55.786Z,1.98
2022-10-07T05:39:28.294Z,2.05
2022-10-07T05:42:01.830Z,2.90
2022-10-07T05:44:37.820Z,2.42
2022-10-07T05:47:10.357Z,2.35
2022-10-07T05:49:43.114Z,2.90
2022-10-07T05:52:15.643Z,3.17
2022-10-07T05:54:48.131Z,2.30
2022-10-07T05:57:20.597Z,2.35
2022-10-07T05:59:53.235Z,2.35
2022-10-07T06:02:26.096Z,2.45
2022-10-07T06:04:58.603Z,2.00
2022-10-07T06:07:31.106Z,2.28
2022-10-07T06:10:22.474Z,2.70
2022-10-07T06:13:07.390Z,1.70
2022-10-07T06:15:39.910Z,2.00
2022-10-07T06:18:12.492Z,2.05
2022-10-07T06:21:12.505Z,1.95
2022-10-07T06:23:51.880Z,2.15
2022-10-07T06:26:24.532Z,2.00
2022-10-07T06:28:57.004Z,2.25
2022-10-07T06:31:29.583Z,2.22
2022-10-07T06:34:02.157Z,2.22
2022-10-07T06:36:34.679Z,2.35
2022-10-07T06:39:07.191Z,2.28
2022-10-07T06:41:39.711Z,2.08
2022-10-07T06:44:12.206Z,2.10
2022-10-07T06:46:44.662Z,2.22
2022-10-07T06:49:17.156Z,2.17
2022-10-07T06:51:49.609Z,1.80
2022-10-07T06:54:22.209Z,2.28
2022-10-07T06:56:54.713Z,1.98
2022-10-07T06:59:27.238Z,1.63
2022-10-07T07:01:59.783Z,1.70
2022-10-07T07:04:32.314Z,1.75
2022-10-07T07:07:05.327Z,1.80
2022-10-07T07:09:37.769Z,1.73
2022-10-07T07:12:10.244Z,1.88
2022-10-07T07:14:44.951Z,1.90
2022-10-07T07:17:18.968Z,1.80
2022-10-07T07:19:51.506Z,2.15
2022-10-07T07:22:24.028Z,1.38
2022-10-07T07:24:56.524Z,2.17
2022-10-07T07:27:29.241Z,2.25
2022-10-07T07:30:02.866Z,1.80
2022-10-07T07:32:35.407Z,1.98
2022-10-07T07:35:09.084Z,1.60
2022-10-07T07:37:45.433Z,2.40
2022-10-07T07:40:20.080Z,2.20
2022-10-07T07:42:55.628Z,1.80
2022-10-07T07:45:29.093Z,1.73
2022-10-07T07:48:01.582Z,1.92
2022-10-07T07:50:34.602Z,2.40
2022-10-07T07:53:07.110Z,2.03
2022-10-07T07:55:39.586Z,1.55
2022-10-07T07:58:12.150Z,2.03
2022-10-07T08:00:44.661Z,1.70
2022-10-07T08:03:17.186Z,1.70
2022-10-07T08:05:49.767Z,1.90
2022-10-07T08:08:22.649Z,2.33
2022-10-07T08:10:55.153Z,1.73
2022-10-07T08:13:27.686Z,2.30
2022-10-07T08:16:00.296Z,1.45
2022-10-07T08:18:33.117Z,1.90
2022-10-07T08:21:07.744Z,2.08
2022-10-07T08:23:41.187Z,1.63
2022-10-07T08:26:14.945Z,1.85
2022-10-07T08:28:48.997Z,1.58
2022-10-07T08:31:22.829Z,1.92
2022-10-07T08:34:00.201Z,1.50
2022-10-07T08:36:33.704Z,1.80
2022-10-07T08:39:07.334Z,3.05
2022-10-07T08:41:58.978Z,1.85
2022-10-07T08:44:41.051Z,1.98
2022-10-07T08:47:47.763Z,1.95
2022-10-07T08:50:46.933Z,1.60
2022-10-07T08:53:30.421Z,2.08
2022-10-07T08:56:17.592Z,1.42
2022-10-07T08:59:12.079Z,1.45
2022-10-07T09:02:00.168Z,1.58
2022-10-07T09:04:54.716Z,1.90
2022-10-07T09:07:48.014Z,1.70
2022-10-07T09:10:32.917Z,1.50
2022-10-07T09:13:24.617Z,1.63
2022-10-07T09:16:13.842Z,1.25
2022-10-07T09:18:53.989Z,1.25
2022-10-07T09:21:43.674Z,1.80
2022-10-07T09:24:24.550Z,1.95
2022-10-07T09:27:01.344Z,1.83
2022-10-07T09:29:33.903Z,1.80
2022-10-07T09:32:06.431Z,1.77
2022-10-07T09:34:38.938Z,1.60
2022-10-07T09:37:27.453Z,2.45
2022-10-07T09:40:27.430Z,1.83
2022-10-07T09:43:01.875Z,1.52
2022-10-07T09:45:34.978Z,1.77
2022-10-07T09:48:21.349Z,1.25
2022-10-07T09:51:24.999Z,1.33
2022-10-07T09:54:16.869Z,1.73
2022-10-07T09:56:59.518Z,1.08
2022-10-07T09:59:36.070Z,1.60
2022-10-07T10:02:15.105Z,1.60
2022-10-07T10:04:54.794Z,1.63
2022-10-07T10:07:33.060Z,1.23
2022-10-07T10:10:21.401Z,1.38
2022-10-07T10:12:58.167Z,1.45
2022-10-07T10:15:39.461Z,0.95
2022-10-07T10:18:35.165Z,1.63
2022-10-07T10:21:29.829Z,1.40
2022-10-07T10:24:15.311Z,1.58
2022-10-07T10:27:17.173Z,1.20
2022-10-07T10:30:05.557Z,1.50
2022-10-07T10:33:01.029Z,1.65
2022-10-07T10:36:06.034Z,1.40
2022-10-07T10:39:02.531Z,1.00
2022-10-07T10:42:00.049Z,1.60
2022-10-07T10:44:44.301Z,1.42
2022-10-07T10:48:09.673Z,1.05
2022-10-07T10:51:08.176Z,1.80
2022-10-07T10:54:05.214Z,1.30
2022-10-07T10:57:14.798Z,1.42
2022-10-07T11:00:12.817Z,1.25
2022-10-07T11:03:26.621Z,1.17
2022-10-07T11:06:05.813Z,1.40
2022-10-07T11:08:38.984Z,1.20
2022-10-07T11:11:22.729Z,0.98
2022-10-07T11:14:04.634Z,1.35
2022-10-07T11:16:54.039Z,1.40
2022-10-07T11:19:43.149Z,1.25
2022-10-07T11:22:32.828Z,1.02
2022-10-07T11:25:30.464Z,0.90
2022-10-07T11:28:21.236Z,1.63
2022-10-07T11:31:27.164Z,1.42
2022-10-07T11:34:21.710Z,1.83
2022-10-07T11:37:09.788Z,1.27
2022-10-07T11:39:42.702Z,1.33
2022-10-07T11:42:26.101Z,1.13
2022-10-07T11:45:06.800Z,1.10
2022-10-07T11:47:56.190Z,0.90
2022-10-07T11:50:41.135Z,0.95
2022-10-07T11:53:28.415Z,1.63
2022-10-07T11:56:16.343Z,1.30
2022-10-07T11:59:03.091Z,1.02
2022-10-07T12:01:35.547Z,1.30
2022-10-07T12:04:24.761Z,1.33
2022-10-07T12:07:34.692Z,0.85
2022-10-07T12:10:23.129Z,1.48
2022-10-07T12:15:43.725Z,1.17
2022-10-07T12:20:51.388Z,0.95
2022-10-07T12:23:25.801Z,1.20
2022-10-07T12:26:30.535Z,2.05
2022-10-07T12:29:04.390Z,1.30
2022-10-07T12:31:42.872Z,1.25
2022-10-07T12:34:39.291Z,1.63
2022-10-07T12:37:39.917Z,1.10
2022-10-07T12:40:29.784Z,1.35
2022-10-07T12:43:37.487Z,1.40
2022-10-07T12:46:15.271Z,1.10
2022-10-07T12:49:30.252Z,1.85
2022-10-07T12:52:41.104Z,1.63
2022-10-07T12:55:28.542Z,1.33
2022-10-07T12:58:45.914Z,1.00
2022-10-07T13:01:39.078Z,1.00
2022-10-07T13:05:08.616Z,1.25
2022-10-07T13:09:02.806Z,1.27
2022-10-07T13:12:24.475Z,1.20
2022-10-07T13:15:41.384Z,1.17
2022-10-07T13:18:26.503Z,1.13
2022-10-07T13:21:30.733Z,1.10
2022-10-07T13:24:03.742Z,1.38
2022-10-07T13:26:37.276Z,1.17
2022-10-07T13:29:26.936Z,1.15
2022-10-07T13:32:09.966Z,1.17
2022-10-07T13:34:46.411Z,1.23
2022-10-07T13:37:38.062Z,1.27
2022-10-07T13:40:35.541Z,1.00
2022-10-07T13:43:09.184Z,1.27
2022-10-07T13:45:45.877Z,1.38
2022-10-07T13:48:34.708Z,0.70
2022-10-07T13:51:07.899Z,1.00
2022-10-07T13:53:41.516Z,0.93
2022-10-07T13:56:25.200Z,0.80
2022-10-07T13:58:59.653Z,1.25
2022-10-07T14:01:38.824Z,0.85
2022-10-07T14:04:25.411Z,1.20
2022-10-07T14:07:13.202Z,0.80
2022-10-07T14:10:01.921Z,0.98
2022-10-07T14:12:46.127Z,1.15
2022-10-07T14:15:27.100Z,0.77
2022-10-07T14:18:11.262Z,1.15
2022-10-07T14:20:55.245Z,1.00
2022-10-07T14:23:35.185Z,0.77
2022-10-07T14:26:11.025Z,0.95
2022-10-07T14:28:46.898Z,0.90
2022-10-07T14:31:39.766Z,0.85
2022-10-07T14:34:38.928Z,1.15
2022-10-07T14:37:17.298Z,1.20
2022-10-07T14:39:53.035Z,1.08
2022-10-07T14:42:32.216Z,0.82
2022-10-07T14:45:09.594Z,1.38
2022-10-07T14:47:44.260Z,0.98
2022-10-07T14:50:19.572Z,1.20
2022-10-07T14:52:52.929Z,1.60
2022-10-07T14:55:29.133Z,1.48
2022-10-07T14:58:01.645Z,1.25
2022-10-07T15:00:38.799Z,1.23
2022-10-07T15:03:12.264Z,0.98
2022-10-07T15:05:44.777Z,0.75
2022-10-07T15:08:17.255Z,1.20
2022-10-07T15:10:49.718Z,0.90
2022-10-07T15:13:22.243Z,1.20
2022-10-07T15:15:54.738Z,0.75
2022-10-07T15:18:27.206Z,0.93
2022-10-07T15:20:59.716Z,1.40
2022-10-07T15:23:32.218Z,1.10
2022-10-07T15:26:05.958Z,0.80
2022-10-07T15:28:38.511Z,0.75
2022-10-07T15:31:11.150Z,1.42
2022-10-07T15:33:44.510Z,0.93
2022-10-07T15:36:17.829Z,1.27
2022-10-07T15:38:50.580Z,1.00
2022-10-07T15:41:32.493Z,1.75
2022-10-07T15:44:16.142Z,1.30
2022-10-07T15:46:53.752Z,1.23
2022-10-07T15:49:26.470Z,1.60
2022-10-07T15:51:59.422Z,1.00
2022-10-07T15:54:32.624Z,0.95
2022-10-07T15:57:05.689Z,1.20
2022-10-07T15:59:38.332Z,2.45
2022-10-07T16:02:21.378Z,1.23
2022-10-07T16:04:54.149Z,1.52
2022-10-07T16:07:30.183Z,2.05
2022-10-07T16:10:02.801Z,1.30
2022-10-07T16:12:35.288Z,1.55
2022-10-07T16:15:08.132Z,1.10
2022-10-07T16:17:40.594Z,1.50
2022-10-07T16:20:15.359Z,1.33
2022-10-07T16:22:48.252Z,1.60
2022-10-07T16:25:20.976Z,1.83
2022-10-07T16:28:12.263Z,1.20
2022-10-07T16:30:49.964Z,1.30
2022-10-07T16:33:22.721Z,1.45
2022-10-07T16:35:58.388Z,1.25
2022-10-07T16:38:31.617Z,1.63
2022-10-07T16:41:04.369Z,1.45
2022-10-07T16:43:37.002Z,1.70
2022-10-07T16:46:15.608Z,1.50
2022-10-07T16:48:50.292Z,1.63
2022-10-07T16:51:35.470Z,1.20
2022-10-07T16:54:17.013Z,1.80
2022-10-07T16:56:52.881Z,1.40
2022-10-07T16:59:26.345Z,1.20
2022-10-07T17:02:02.500Z,1.83
2022-10-07T17:04:35.571Z,1.40
2022-10-07T17:07:08.208Z,1.92
2022-10-07T17:09:41.018Z,1.88
2022-10-07T17:12:16.276Z,1.92
2022-10-07T17:14:49.001Z,1.60
2022-10-07T17:17:21.694Z,2.10
2022-10-07T17:19:54.296Z,1.58
2022-10-07T17:22:26.809Z,1.60
2022-10-07T17:24:59.812Z,1.90
2022-10-07T17:27:32.319Z,1.98
2022-10-07T17:30:05.625Z,2.20
2022-10-07T17:32:38.143Z,2.25
2022-10-07T17:35:10.659Z,2.92
2022-10-07T17:37:43.339Z,2.72
2022-10-07T17:40:16.490Z,2.80
2022-10-07T17:42:48.993Z,2.53
2022-10-07T17:45:22.301Z,2.78
2022-10-07T17:47:57.477Z,2.45
2022-10-07T17:50:31.759Z,2.60
2022-10-07T17:53:05.363Z,2.42
2022-10-07T17:55:40.545Z,2.15
2022-10-07T17:58:13.130Z,2.00
2022-10-07T18:00:45.679Z,2.35
2022-10-07T18:03:18.314Z,2.30
2022-10-07T18:05:53.907Z,2.22
2022-10-07T18:08:26.872Z,2.08
2022-10-07T18:10:59.716Z,2.15
2022-10-07T18:13:51.800Z,2.10
2022-10-07T18:16:24.381Z,1.52
2022-10-07T18:18:57.477Z,1.80
2022-10-07T18:21:31.549Z,1.70
2022-10-07T18:24:08.153Z,1.83
2022-10-07T18:26:42.564Z,1.45
2022-10-07T18:29:17.260Z,1.55
2022-10-07T18:31:49.919Z,1.63
2022-10-07T18:34:23.486Z,1.42
2022-10-07T18:36:57.279Z,1.98
2022-10-07T18:39:30.792Z,1.67
2022-10-07T18:42:04.456Z,1.90
2022-10-07T18:44:37.008Z,1.92
2022-10-07T18:47:09.501Z,2.20
2022-10-07T18:49:42.003Z,1.38
2022-10-07T18:52:14.609Z,1.58
2022-10-07T18:54:47.123Z,1.85
2022-10-07T18:57:20.938Z,1.60
2022-10-07T18:59:53.458Z,1.45
2022-10-07T19:02:26.124Z,2.10
2022-10-07T19:04:58.711Z,1.48
2022-10-07T19:07:31.463Z,2.05
2022-10-07T19:10:04.465Z,2.00
2022-10-07T19:12:55.493Z,1.42
2022-10-07T19:15:27.990Z,1.55
2022-10-07T19:18:00.787Z,1.42
2022-10-07T19:20:36.533Z,2.03
2022-10-07T19:25:46.564Z,1.30
2022-10-07T19:28:19.838Z,2.10
2022-10-07T19:30:55.117Z,2.03
2022-10-07T19:33:27.709Z,1.67
2022-10-07T19:36:02.456Z,1.35
2022-10-07T19:38:34.991Z,1.55
2022-10-07T19:41:08.405Z,1.42
2022-10-07T19:43:42.875Z,1.42
2022-10-07T19:46:17.053Z,2.08
2022-10-07T19:48:57.091Z,1.65
2022-10-07T19:51:36.537Z,1.65
2022-10-07T19:54:10.734Z,1.63
2022-10-07T19:56:44.435Z,1.73
2022-10-07T19:59:17.052Z,1.90
2022-10-07T20:01:51.821Z,1.50
2022-10-07T20:04:24.456Z,1.60
2022-10-07T20:06:58.725Z,2.35
2022-10-07T20:09:31.213Z,1.52
2022-10-07T20:12:04.772Z,1.77
2022-10-07T20:14:39.394Z,1.70
2022-10-07T20:17:11.970Z,1.40
2022-10-07T20:19:44.487Z,1.40
2022-10-07T20:22:17.008Z,1.90
2022-10-07T20:24:49.453Z,1.90
2022-10-07T20:27:21.960Z,1.67
2022-10-07T20:29:57.353Z,1.67
2022-10-07T20:32:33.951Z,1.58
2022-10-07T20:35:09.775Z,1.23
2022-10-07T20:40:33.487Z,1.77
2022-10-07T20:43:05.937Z,1.98
2022-10-07T20:45:56.231Z,1.70
2022-10-07T20:48:31.340Z,1.73
2022-10-07T20:51:08.808Z,2.15
2022-10-07T20:53:41.267Z,1.70
2022-10-07T20:56:13.867Z,2.22
2022-10-07T20:58:46.419Z,2.03
2022-10-07T21:01:19.004Z,1.60
2022-10-07T21:03:51.520Z,2.42
2022-10-07T21:06:24.451Z,1.90
2022-10-07T21:08:58.018Z,1.85
2022-10-07T21:11:30.587Z,2.00
2022-10-07T21:14:03.319Z,1.92
2022-10-07T21:16:36.353Z,2.75
2022-10-07T21:19:09.363Z,2.30
2022-10-07T21:21:41.970Z,2.47
2022-10-07T21:24:14.542Z,3.55
2022-10-07T21:26:47.397Z,1.95
2022-10-07T21:29:19.946Z,6.13
2022-10-07T21:31:53.271Z,5.50
2022-10-07T21:34:26.012Z,2.20
2022-10-07T21:36:59.047Z,2.03
2022-10-07T21:39:31.771Z,5.35
2022-10-07T21:42:04.332Z,4.47
2022-10-07T21:44:36.769Z,5.38
2022-10-07T21:47:09.283Z,6.35
2022-10-07T21:49:41.775Z,2.67
2022-10-07T21:52:14.483Z,2.97
2022-10-07T21:54:47.025Z,1.98
2022-10-07T21:57:20.068Z,1.92
2022-10-07T21:59:53.722Z,1.70
2022-10-07T22:02:29.252Z,1.80
2022-10-07T22:05:01.829Z,1.90
2022-10-07T22:07:53.162Z,2.00
2022-10-07T22:10:25.623Z,1.92
2022-10-07T22:12:58.102Z,3.90
2022-10-07T22:15:30.679Z,7.72
2022-10-07T22:18:04.244Z,14.15
2022-10-07T22:20:38.819Z,12.52
2022-10-07T22:23:11.309Z,6.47
2022-10-07T22:25:44.321Z,8.77
2022-10-07T22:28:16.875Z,9.43
2022-10-07T22:30:49.449Z,4.28
2022-10-07T22:33:21.946Z,4.32
2022-10-07T22:35:54.443Z,2.67
2022-10-07T22:38:28.677Z,2.80
2022-10-07T22:41:10.548Z,3.47
2022-10-07T22:43:46.047Z,2.85
2022-10-07T22:46:25.978Z,2.20
2022-10-07T22:48:58.966Z,1.92
2022-10-07T22:51:31.421Z,3.20
2022-10-07T22:54:04.259Z,2.33
2022-10-07T22:56:36.875Z,1.92
2022-10-07T22:59:10.903Z,1.80
2022-10-07T23:01:43.340Z,2.40
2022-10-07T23:04:15.981Z,2.88
2022-10-07T23:06:48.635Z,2.33
2022-10-07T23:09:21.130Z,1.90
2022-10-07T23:11:53.593Z,2.35
2022-10-07T23:14:26.094Z,4.03
2022-10-07T23:16:58.790Z,3.50
2022-10-07T23:19:31.317Z,3.03
2022-10-07T23:22:05.440Z,2.70
2022-10-07T23:24:38.389Z,1.75
2022-10-07T23:27:10.892Z,11.40
2022-10-07T23:29:43.379Z,8.45
2022-10-07T23:32:15.877Z,2.00
2022-10-07T23:34:48.374Z,2.05
2022-10-07T23:37:20.857Z,2.83
2022-10-07T23:39:53.335Z,2.00
2022-10-07T23:42:25.869Z,2.17
2022-10-07T23:45:03.164Z,1.92
2022-10-07T23:47:35.696Z,1.58
2022-10-07T23:50:09.424Z,1.90
2022-10-07T23:52:42.391Z,1.83
2022-10-07T23:55:14.935Z,2.03
2022-10-07T23:57:47.402Z,1.50
